Time;durP1;ratioP1;P1;durP2;ratioP2;P2;SDS_P1;SDS_P2;PMS_P1;PMS_P2;Temp;Humidity;BMP_temperature;BMP_pressure;BME280_temperature;BME280_humidity;BME280_pressure;Samples;Min_cycle;Max_cycle;Signal;HPM_P1;HPM_P2
2022/01/09 00:03:51;;;;;;;3.78;3.42;;;;;;;1.36;82.37;97993.59;8487897;33;20737;-76
2022/01/09 00:08:54;;;;;;;4.43;3.47;;;;;;;1.28;82.24;97996.00;8489984;33;20138;-75
2022/01/09 00:13:58;;;;;;;3.35;3.05;;;;;;;1.32;82.29;97973.66;8490217;34;20232;-77
2022/01/09 00:19:01;;;;;;;4.25;3.05;;;;;;;1.49;81.70;97970.47;8492826;33;21058;-76
2022/01/09 00:24:05;;;;;;;5.00;3.10;;;;;;;1.52;81.56;97965.91;8482423;33;20547;-76
2022/01/09 00:29:10;;;;;;;3.35;3.05;;;;;;;1.43;81.84;97952.47;8486116;33;20450;-76
2022/01/09 00:34:13;;;;;;;3.78;3.20;;;;;;;1.59;81.68;97949.41;8485529;33;20179;-77
2022/01/09 00:39:16;;;;;;;3.10;2.80;;;;;;;1.47;82.21;97951.22;8478701;33;20235;-77
2022/01/09 00:44:20;;;;;;;3.67;2.88;;;;;;;1.58;81.89;97934.47;8471062;33;20196;-76
2022/01/09 00:49:23;;;;;;;2.42;2.22;;;;;;;1.50;82.57;97921.88;8473179;33;20459;-75
2022/01/09 00:54:26;;;;;;;2.17;2.08;;;;;;;1.55;83.62;97928.59;8468781;33;20572;-75
2022/01/09 00:59:31;;;;;;;2.17;1.98;;;;;;;1.50;83.47;97921.88;8469674;33;21006;-75
2022/01/09 01:04:34;;;;;;;2.30;2.10;;;;;;;1.40;83.50;97912.16;8471977;33;20729;-77
2022/01/09 01:09:37;;;;;;;2.00;1.70;;;;;;;1.25;84.05;97909.00;8469131;34;20456;-76
2022/01/09 01:14:42;;;;;;;2.03;1.90;;;;;;;1.43;84.21;97896.91;8468293;33;20761;-76
2022/01/09 01:19:46;;;;;;;2.40;2.20;;;;;;;1.50;84.46;97892.75;8470107;33;20449;-77
2022/01/09 01:25:04;;;;;;;2.08;1.90;;;;;;;1.28;84.70;97890.22;8469170;33;20137;-76
2022/01/09 01:30:10;;;;;;;2.20;2.00;;;;;;;1.47;84.63;97884.25;8470014;33;20419;-75
2022/01/09 01:35:14;;;;;;;1.98;1.83;;;;;;;1.29;85.08;97881.34;8468587;33;20421;-77
2022/01/09 01:40:22;;;;;;;2.63;2.40;;;;;;;1.38;84.47;97867.34;8507375;33;20480;-77
2022/01/09 01:45:26;;;;;;;2.13;1.92;;;;;;;1.40;84.87;97865.41;8512033;33;20165;-77
2022/01/09 01:50:34;;;;;;;1.90;1.80;;;;;;;1.50;85.59;97865.47;8474286;33;20447;-78
2022/01/09 01:55:39;;;;;;;1.98;1.67;;;;;;;1.36;85.13;97860.50;8476150;33;20474;-78
2022/01/09 02:00:44;;;;;;;5.32;1.95;;;;;;;1.55;85.07;97851.88;8485501;33;20461;-77
2022/01/09 02:05:47;;;;;;;1.50;1.42;;;;;;;1.59;85.25;97842.69;8484223;33;20156;-77
2022/01/09 02:10:50;;;;;;;1.88;1.77;;;;;;;1.56;85.24;97845.59;8473481;33;20930;-76
2022/01/09 02:15:57;;;;;;;1.77;1.67;;;;;;;1.63;85.06;97839.66;8478138;34;20476;-77
2022/01/09 02:21:02;;;;;;;1.90;1.70;;;;;;;1.54;85.35;97843.09;8483072;33;20561;-77
2022/01/09 02:26:05;;;;;;;1.90;1.80;;;;;;;1.60;85.00;97826.69;8469684;34;20636;-77
2022/01/09 02:31:09;;;;;;;1.83;1.33;;;;;;;1.73;85.15;97823.88;8469720;33;20527;-78
2022/01/09 02:36:13;;;;;;;1.30;1.30;;;;;;;1.60;84.95;97821.41;8469890;33;20228;-77
2022/01/09 02:41:16;;;;;;;1.50;1.40;;;;;;;1.65;84.85;97821.88;8470211;33;20458;-78
2022/01/09 02:46:34;;;;;;;1.50;1.40;;;;;;;1.65;84.85;97815.75;8470245;33;20494;-77
2022/01/09 02:51:40;;;;;;;1.60;1.50;;;;;;;1.69;84.72;97817.13;8470556;33;20565;-77
2022/01/09 02:56:43;;;;;;;1.88;1.77;;;;;;;1.76;84.29;97830.69;8467640;33;20720;-76
2022/01/09 03:01:46;;;;;;;2.22;2.10;;;;;;;1.76;84.11;97823.59;8481538;33;20193;-76
2022/01/09 03:06:50;;;;;;;1.75;1.65;;;;;;;1.85;83.32;97835.19;8472539;33;20242;-76
2022/01/09 03:11:53;;;;;;;1.50;1.40;;;;;;;1.94;82.97;97827.28;8479090;33;20537;-75
2022/01/09 03:16:56;;;;;;;1.60;1.50;;;;;;;1.88;82.61;97834.94;8445256;28;20497;-78
2022/01/09 03:22:01;;;;;;;1.33;1.23;;;;;;;1.86;82.63;97831.56;8352676;34;20455;-76
2022/01/09 03:27:05;;;;;;;1.23;1.13;;;;;;;1.95;82.80;97833.44;8355301;34;20221;-75
2022/01/09 03:32:09;;;;;;;1.35;1.23;;;;;;;1.94;82.12;97837.06;8354262;34;20197;-76
2022/01/09 03:37:14;;;;;;;1.50;1.40;;;;;;;1.98;82.63;97856.19;8354177;34;20517;-77
2022/01/09 03:42:21;;;;;;;1.25;1.15;;;;;;;1.85;83.19;97857.22;8354934;34;20599;-77
2022/01/09 03:47:24;;;;;;;1.10;0.93;;;;;;;1.78;83.18;97858.69;8359490;34;20152;-76
2022/01/09 03:52:28;;;;;;;0.88;0.88;;;;;;;1.82;83.60;97872.53;8361009;34;20636;-76
2022/01/09 03:57:31;;;;;;;0.95;0.70;;;;;;;1.67;84.35;97872.00;8358386;34;20655;-77
2022/01/09 04:02:34;;;;;;;1.25;0.90;;;;;;;1.66;84.02;97872.97;8359823;34;20497;-77
2022/01/09 04:07:39;;;;;;;0.82;0.82;;;;;;;1.60;84.37;97887.56;8360454;34;20139;-78
2022/01/09 04:12:59;;;;;;;0.90;0.90;;;;;;;1.52;84.95;97892.66;8361091;34;20127;-77
2022/01/09 04:18:02;;;;;;;0.98;0.98;;;;;;;1.37;84.97;97902.72;8360968;34;20433;-76
2022/01/09 04:23:07;;;;;;;1.42;1.20;;;;;;;1.34;85.39;97908.22;8360343;34;20440;-76
2022/01/09 04:28:10;;;;;;;0.80;0.80;;;;;;;1.12;86.44;97903.84;8360202;34;20226;-77
2022/01/09 04:33:14;;;;;;;1.10;1.10;;;;;;;1.24;86.27;97920.56;8360930;34;20916;-76
2022/01/09 04:38:19;;;;;;;0.80;0.80;;;;;;;1.16;86.40;97922.97;8355660;34;20433;-77
2022/01/09 04:43:22;;;;;;;1.13;1.02;;;;;;;1.16;87.07;97928.25;8354973;34;20284;-76
2022/01/09 04:48:25;;;;;;;1.40;1.30;;;;;;;1.25;86.44;97919.56;8351804;34;20429;-74
2022/01/09 04:53:30;;;;;;;1.17;1.13;;;;;;;1.30;86.77;97930.63;8350142;34;20935;-75
2022/01/09 04:58:33;;;;;;;1.10;1.10;;;;;;;1.24;86.90;97941.72;8353066;34;20203;-74
2022/01/09 05:03:36;;;;;;;1.75;1.63;;;;;;;1.25;87.23;97949.50;8358687;34;20166;-74
2022/01/09 05:08:41;;;;;;;1.45;1.35;;;;;;;1.30;86.87;97956.22;8355905;34;20440;-74
2022/01/09 05:13:44;;;;;;;1.67;1.58;;;;;;;1.47;87.08;97964.44;8353508;34;20570;-75
2022/01/09 05:18:52;;;;;;;1.83;1.70;;;;;;;1.22;87.29;97973.56;8347562;34;20532;-76
2022/01/09 05:23:57;;;;;;;2.00;1.90;;;;;;;1.43;87.61;97975.44;8348012;34;20425;-76
2022/01/09 05:29:00;;;;;;;2.28;1.90;;;;;;;1.54;87.26;97985.97;8351729;34;20246;-76
2022/01/09 05:34:03;;;;;;;2.60;2.40;;;;;;;1.26;87.96;97992.66;8350365;34;20933;-74
2022/01/09 05:39:08;;;;;;;3.13;2.42;;;;;;;0.90;88.92;98004.38;8366721;34;20495;-74
2022/01/09 05:44:11;;;;;;;2.53;2.05;;;;;;;1.15;87.91;98019.97;8395661;34;20127;-74
2022/01/09 05:49:14;;;;;;;3.53;2.45;;;;;;;0.96;91.74;98036.47;8380784;34;20148;-75
2022/01/09 05:54:18;;;;;;;4.30;2.75;;;;;;;0.88;91.68;98041.50;8352391;34;20146;-75
2022/01/09 05:59:21;;;;;;;3.13;2.83;;;;;;;0.70;88.75;98046.41;8353089;34;21068;-76
2022/01/09 06:04:25;;;;;;;5.55;2.90;;;;;;;0.64;88.91;98064.53;8358089;34;21122;-76
2022/01/09 06:09:30;;;;;;;3.55;2.47;;;;;;;0.63;88.76;98073.41;8353631;34;21019;-75
2022/01/09 06:14:33;;;;;;;4.25;2.67;;;;;;;0.59;88.78;98088.66;8347576;34;20223;-75
2022/01/09 06:19:36;;;;;;;2.58;2.28;;;;;;;0.63;89.14;98091.91;8346493;34;20247;-75
2022/01/09 06:24:40;;;;;;;2.65;2.35;;;;;;;0.53;89.43;98100.53;8345802;34;20230;-75
2022/01/09 06:29:44;;;;;;;2.58;2.33;;;;;;;0.64;89.85;98105.00;8347231;34;20421;-75
2022/01/09 06:34:47;;;;;;;5.85;2.78;;;;;;;0.78;89.69;98112.72;8354179;34;20277;-74
2022/01/09 06:39:51;;;;;;;3.22;2.75;;;;;;;0.69;90.41;98128.47;8356418;34;20636;-75
2022/01/09 06:44:54;;;;;;;5.40;3.33;;;;;;;0.81;90.93;98138.06;8356378;34;20582;-76
2022/01/09 06:49:58;;;;;;;6.03;3.60;;;;;;;1.02;90.59;98148.81;8356843;34;21113;-74
2022/01/09 06:55:04;;;;;;;5.25;3.80;;;;;;;1.26;90.15;98161.91;8352423;34;20424;-76
2022/01/09 07:00:11;;;;;;;6.35;4.03;;;;;;;1.39;90.28;98167.09;8353128;34;20602;-76
2022/01/09 07:05:15;;;;;;;4.70;3.70;;;;;;;1.39;91.08;98180.31;8354895;34;20536;-76
2022/01/09 07:10:19;;;;;;;10.32;4.28;;;;;;;1.72;91.03;98187.41;8354734;34;20676;-75
2022/01/09 07:15:22;;;;;;;6.18;3.95;;;;;;;1.82;90.31;98206.88;8355369;34;21057;-76
2022/01/09 07:20:26;;;;;;;6.53;3.47;;;;;;;1.94;90.70;98207.69;8354326;34;21042;-76
2022/01/09 07:25:30;;;;;;;5.97;4.07;;;;;;;2.08;90.25;98219.84;8360208;34;20669;-75
2022/01/09 07:30:33;;;;;;;6.68;3.60;;;;;;;2.01;90.25;98223.97;8361595;34;21015;-75
2022/01/09 07:35:36;;;;;;;5.85;3.72;;;;;;;2.11;89.76;98228.41;8359506;34;20506;-75
2022/01/09 07:40:41;;;;;;;9.30;4.15;;;;;;;2.00;90.36;98235.50;8354936;34;20506;-75
2022/01/09 07:45:44;;;;;;;5.55;3.55;;;;;;;1.82;91.16;98238.66;8354585;34;20381;-75
2022/01/09 07:50:47;;;;;;;7.07;3.20;;;;;;;2.04;90.65;98255.50;8362351;34;20171;-75
2022/01/09 07:55:52;;;;;;;8.27;4.25;;;;;;;2.03;91.36;98256.44;8386077;34;20627;-75
2022/01/09 08:00:56;;;;;;;8.15;4.10;;;;;;;2.15;90.80;98271.38;8340124;34;21015;-75
2022/01/09 08:05:59;;;;;;;12.18;4.18;;;;;;;2.12;92.13;98280.38;8376764;34;20150;-75
2022/01/09 08:11:03;;;;;;;18.83;5.85;;;;;;;2.30;93.20;98282.53;8385888;34;20690;-74
2022/01/09 08:16:06;;;;;;;14.98;4.75;;;;;;;2.67;92.26;98291.03;8389371;34;20670;-75
2022/01/09 08:21:09;;;;;;;10.90;3.90;;;;;;;2.92;92.15;98312.88;8399020;34;20533;-75
2022/01/09 08:26:14;;;;;;;16.55;4.53;;;;;;;2.79;92.53;98329.78;8411139;34;20575;-76
2022/01/09 08:31:18;;;;;;;16.00;4.30;;;;;;;2.86;92.77;98321.34;8415229;34;20219;-76
2022/01/09 08:36:21;;;;;;;18.20;4.13;;;;;;;2.90;92.24;98341.31;8413125;34;20605;-76
2022/01/09 08:41:26;;;;;;;13.70;4.10;;;;;;;2.75;92.40;98351.38;8411791;34;20648;-76
2022/01/09 08:46:29;;;;;;;8.40;3.47;;;;;;;3.06;91.79;98365.63;8412836;34;20154;-76
2022/01/09 08:51:32;;;;;;;20.77;5.70;;;;;;;3.09;91.92;98378.63;8418011;34;20561;-75
2022/01/09 08:56:39;;;;;;;17.95;4.78;;;;;;;2.93;92.67;98388.81;8413163;34;21007;-76
2022/01/09 09:01:42;;;;;;;12.75;4.07;;;;;;;3.13;91.62;98409.28;8408629;34;20142;-74
2022/01/09 09:06:49;;;;;;;12.48;3.58;;;;;;;2.69;92.67;98412.84;8405330;34;20451;-74
2022/01/09 09:11:53;;;;;;;12.77;3.97;;;;;;;2.97;91.96;98428.22;8406733;34;20657;-75
2022/01/09 09:16:58;;;;;;;8.45;4.15;;;;;;;2.73;92.54;98446.94;8438114;28;20160;-76
2022/01/09 09:22:01;;;;;;;12.65;4.75;;;;;;;2.90;92.03;98453.53;8461891;34;20569;-75
2022/01/09 09:27:06;;;;;;;15.65;3.60;;;;;;;2.53;92.62;98458.25;8462888;34;20443;-75
2022/01/09 09:32:10;;;;;;;7.75;3.22;;;;;;;2.56;93.11;98481.91;8457180;33;20429;-75
2022/01/09 09:37:13;;;;;;;16.02;3.85;;;;;;;2.66;92.94;98495.25;8456798;33;20584;-74
2022/01/09 09:42:18;;;;;;;9.48;3.35;;;;;;;2.72;92.17;98497.44;8456089;34;20478;-74
2022/01/09 09:47:23;;;;;;;10.68;5.55;;;;;;;2.49;93.36;98510.63;8458820;34;20289;-74
2022/01/09 09:52:26;;;;;;;10.68;5.25;;;;;;;3.03;91.74;98522.38;8465538;34;20228;-74
2022/01/09 09:57:30;;;;;;;13.18;3.95;;;;;;;3.06;90.83;98536.22;8466820;34;20558;-74
2022/01/09 10:02:45;;;;;;;10.07;3.25;;;;;;;3.26;90.55;98542.63;8467098;34;20244;-74
2022/01/09 10:07:49;;;;;;;9.65;3.42;;;;;;;3.05;90.73;98545.16;8471757;34;20466;-75
2022/01/09 10:13:07;;;;;;;11.98;4.10;;;;;;;3.16;91.10;98552.28;8490246;33;20298;-74
2022/01/09 10:18:10;;;;;;;7.32;2.95;;;;;;;3.21;90.45;98567.81;8530670;33;20235;-73
2022/01/09 10:23:13;;;;;;;7.82;3.08;;;;;;;3.24;89.11;98583.50;8525059;33;20295;-74
2022/01/09 10:28:17;;;;;;;8.55;3.10;;;;;;;3.06;89.10;98594.59;8525595;33;20563;-73
2022/01/09 10:33:26;;;;;;;11.73;5.28;;;;;;;3.19;89.47;98591.00;8524065;33;20556;-74
2022/01/09 10:38:30;;;;;;;9.50;4.80;;;;;;;3.01;89.70;98601.22;8525151;33;20208;-74
2022/01/09 10:43:39;;;;;;;10.52;4.25;;;;;;;3.37;88.53;98605.44;8524660;33;20350;-75
2022/01/09 10:48:44;;;;;;;19.90;4.40;;;;;;;3.01;88.90;98619.78;8525284;33;20522;-74
2022/01/09 10:53:47;;;;;;;14.43;4.60;;;;;;;2.87;89.47;98641.25;8521742;33;20426;-75
2022/01/09 10:58:58;;;;;;;16.08;3.80;;;;;;;2.83;90.77;98640.63;8499152;33;20449;-75
2022/01/09 11:04:04;;;;;;;11.82;4.88;;;;;;;2.80;90.63;98647.03;8485951;33;20672;-73
2022/01/09 11:09:08;;;;;;;7.70;2.95;;;;;;;2.78;90.22;98661.34;8491659;33;20640;-73
2022/01/09 11:14:17;;;;;;;15.65;4.70;;;;;;;2.71;91.66;98665.41;8505190;33;20459;-74
2022/01/09 11:19:23;;;;;;;15.43;4.70;;;;;;;2.96;90.63;98664.38;8490904;33;20429;-74
2022/01/09 11:24:55;;;;;;;15.02;5.38;;;;;;;3.09;90.54;98673.09;8489102;33;20435;-76
2022/01/09 11:30:07;;;;;;;12.15;5.60;;;;;;;2.75;90.95;98681.00;8441978;33;20959;-73
2022/01/09 11:35:18;;;;;;;9.55;4.55;;;;;;;2.75;91.35;98701.38;8478924;33;20719;-73
2022/01/09 11:40:27;;;;;;;11.35;4.75;;;;;;;2.66;91.50;98699.38;8487564;33;20511;-75
2022/01/09 11:45:47;;;;;;;13.75;4.90;;;;;;;3.14;90.12;98701.94;8496637;33;20164;-73
2022/01/09 11:51:14;;;;;;;16.20;6.33;;;;;;;2.67;91.97;98709.06;8504544;33;20434;-75
2022/01/09 11:56:48;;;;;;;13.82;4.82;;;;;;;2.92;90.46;98716.84;8493006;33;20240;-75
2022/01/09 12:02:07;;;;;;;14.07;4.75;;;;;;;3.00;90.28;98721.56;8469218;34;20142;-75
2022/01/09 12:07:13;;;;;;;10.70;4.18;;;;;;;3.13;90.18;98721.47;8465293;34;20188;-75
2022/01/09 12:12:17;;;;;;;6.65;3.65;;;;;;;3.11;89.24;98737.50;8464525;33;20251;-75
2022/01/09 12:17:42;;;;;;;11.50;5.00;;;;;;;3.23;89.21;98741.00;8462947;33;20910;-74
2022/01/09 12:23:04;;;;;;;13.13;4.90;;;;;;;3.36;88.24;98741.78;8463060;33;20203;-75
2022/01/09 12:28:10;;;;;;;8.63;3.55;;;;;;;3.14;88.02;98752.34;8472204;33;20938;-75
2022/01/09 12:33:38;;;;;;;13.27;4.20;;;;;;;2.90;88.11;98761.19;8487546;33;20195;-73
2022/01/09 12:38:45;;;;;;;6.82;4.10;;;;;;;3.24;88.01;98758.66;8490485;33;20425;-74
2022/01/09 12:43:49;;;;;;;12.00;3.53;;;;;;;3.26;87.79;98778.81;8490793;33;20188;-74
2022/01/09 12:48:57;;;;;;;11.23;3.78;;;;;;;3.25;88.01;98781.56;8493629;33;20368;-74
2022/01/09 12:54:04;;;;;;;7.53;3.33;;;;;;;3.25;87.35;98795.66;8508693;33;20161;-73
2022/01/09 12:59:09;;;;;;;10.82;4.10;;;;;;;3.26;87.04;98796.50;8499296;33;20153;-74
2022/01/09 13:04:17;;;;;;;6.47;3.53;;;;;;;3.21;86.68;98804.84;8488886;33;20634;-74
2022/01/09 13:09:24;;;;;;;9.13;3.80;;;;;;;3.24;86.47;98809.06;8483813;34;20428;-73
2022/01/09 13:14:27;;;;;;;5.70;3.83;;;;;;;3.17;85.89;98813.13;8497141;33;20130;-73
2022/01/09 13:19:31;;;;;;;6.43;3.65;;;;;;;3.12;85.30;98828.53;8483568;34;20653;-73
2022/01/09 13:25:08;;;;;;;7.63;3.38;;;;;;;3.18;85.44;98841.34;8461212;33;20432;-75
2022/01/09 13:30:11;;;;;;;9.98;4.55;;;;;;;3.16;85.18;98838.81;8474392;33;20454;-75
2022/01/09 13:35:16;;;;;;;8.43;4.05;;;;;;;3.13;85.44;98851.50;8512688;33;20536;-75
2022/01/09 13:40:19;;;;;;;6.43;4.15;;;;;;;3.00;85.34;98847.06;8513414;33;21007;-75
2022/01/09 13:45:25;;;;;;;6.63;4.18;;;;;;;3.42;84.08;98865.19;8516541;33;20510;-75
2022/01/09 13:50:33;;;;;;;11.70;5.45;;;;;;;3.43;84.05;98869.56;8516484;33;20523;-75
2022/01/09 13:55:39;;;;;;;13.35;6.47;;;;;;;3.67;84.01;98877.47;8515895;33;20156;-75
2022/01/09 14:00:44;;;;;;;11.20;5.90;;;;;;;3.25;83.24;98887.72;8513889;33;20244;-74
2022/01/09 14:05:49;;;;;;;19.52;10.15;;;;;;;3.41;83.15;98900.69;8515871;33;21159;-75
2022/01/09 14:10:55;;;;;;;8.85;4.30;;;;;;;3.37;82.67;98905.34;8518397;33;20449;-74
2022/01/09 14:16:09;;;;;;;8.10;4.00;;;;;;;3.70;82.57;98917.06;8501912;33;20532;-75
2022/01/09 14:21:16;;;;;;;12.80;4.30;;;;;;;3.50;82.59;98914.09;8475968;33;20994;-75
2022/01/09 14:26:22;;;;;;;7.85;4.90;;;;;;;3.71;82.26;98927.56;8476709;33;20441;-75
2022/01/09 14:31:27;;;;;;;9.65;4.22;;;;;;;3.87;82.16;98921.94;8465371;33;20518;-75
2022/01/09 14:36:34;;;;;;;11.32;4.90;;;;;;;3.77;81.97;98930.72;8475239;33;20601;-75
2022/01/09 14:41:38;;;;;;;7.03;3.22;;;;;;;3.58;81.29;98940.06;8476361;33;20542;-74
2022/01/09 14:46:41;;;;;;;6.90;4.28;;;;;;;3.83;80.74;98947.03;8466692;33;20425;-75
2022/01/09 14:51:46;;;;;;;7.28;4.10;;;;;;;3.73;80.79;98952.22;8466415;33;20500;-75
2022/01/09 14:56:49;;;;;;;10.00;4.32;;;;;;;3.81;80.18;98972.03;8462541;33;20902;-75
2022/01/09 15:01:52;;;;;;;36.42;5.80;;;;;;;3.90;79.95;98977.50;8468438;33;20411;-75
2022/01/09 15:06:58;;;;;;;8.93;4.10;;;;;;;3.70;80.01;98981.66;8464322;33;20516;-76
2022/01/09 15:12:01;;;;;;;6.20;3.70;;;;;;;3.47;80.61;98990.47;8477109;34;20153;-76
2022/01/09 15:17:04;;;;;;;8.52;4.32;;;;;;;3.44;80.04;98996.00;8476132;28;20177;-75
2022/01/09 15:22:09;;;;;;;11.02;5.20;;;;;;;3.40;79.77;99007.81;8356846;34;20540;-75
2022/01/09 15:27:14;;;;;;;6.07;3.33;;;;;;;3.57;79.77;99015.41;8357530;34;20282;-75
2022/01/09 15:32:17;;;;;;;5.30;2.42;;;;;;;3.50;79.70;99033.56;8357275;34;20395;-75
2022/01/09 15:37:23;;;;;;;4.35;3.05;;;;;;;3.73;79.12;99036.38;8360774;34;21081;-75
2022/01/09 15:42:26;;;;;;;15.95;3.97;;;;;;;3.66;79.21;99040.41;8358446;34;20527;-75
2022/01/09 15:47:29;;;;;;;9.85;3.97;;;;;;;3.39;79.60;99049.44;8372187;34;20703;-74
2022/01/09 15:52:33;;;;;;;6.05;3.38;;;;;;;3.39;79.55;99065.38;8373045;34;20717;-74
2022/01/09 15:57:42;;;;;;;20.35;13.30;;;;;;;3.29;79.64;99072.28;8374557;34;20431;-74
2022/01/09 16:02:45;;;;;;;13.90;7.93;;;;;;;3.30;79.33;99086.44;8376114;34;20278;-74
2022/01/09 16:07:49;;;;;;;6.22;3.80;;;;;;;3.33;79.08;99078.25;8362399;34;20170;-75
2022/01/09 16:12:52;;;;;;;7.53;3.92;;;;;;;3.19;79.24;99090.69;8375027;34;20426;-75
2022/01/09 16:17:56;;;;;;;7.40;3.25;;;;;;;3.36;78.91;99096.59;8375675;34;20421;-75
2022/01/09 16:23:00;;;;;;;8.90;5.78;;;;;;;3.32;78.93;99103.94;8377880;34;20741;-75
2022/01/09 16:28:04;;;;;;;9.38;4.03;;;;;;;3.36;78.27;99109.88;8378753;34;20542;-75
2022/01/09 16:33:08;;;;;;;8.30;3.45;;;;;;;3.36;79.13;99125.78;8378093;34;20298;-75
2022/01/09 16:38:12;;;;;;;10.05;4.32;;;;;;;3.56;78.71;99134.97;8379184;34;20151;-75
2022/01/09 16:43:15;;;;;;;5.50;3.38;;;;;;;3.62;78.67;99143.38;8377987;34;20457;-73
2022/01/09 16:48:19;;;;;;;6.25;3.88;;;;;;;3.60;78.52;99149.75;8378197;34;21058;-75
2022/01/09 16:53:23;;;;;;;5.20;3.67;;;;;;;3.55;78.96;99163.34;8372688;34;20198;-74
2022/01/09 16:58:27;;;;;;;7.32;4.68;;;;;;;3.27;80.56;99170.59;8379110;34;20434;-73
2022/01/09 17:03:33;;;;;;;11.27;5.82;;;;;;;3.48;79.78;99178.00;8373671;34;20583;-75
2022/01/09 17:08:40;;;;;;;7.18;3.20;;;;;;;3.18;80.16;99189.84;8372833;34;20203;-75
2022/01/09 17:13:43;;;;;;;4.03;2.83;;;;;;;3.31;79.91;99199.59;8372681;34;20545;-75
2022/01/09 17:18:46;;;;;;;7.22;4.43;;;;;;;3.09;80.21;99203.72;8369236;34;20445;-75
2022/01/09 17:23:51;;;;;;;8.95;3.55;;;;;;;2.96;80.83;99224.97;8370156;34;20495;-74
2022/01/09 17:28:58;;;;;;;5.60;3.05;;;;;;;2.92;81.02;99223.44;8360824;34;20417;-74
2022/01/09 17:34:03;;;;;;;5.43;3.53;;;;;;;3.05;81.17;99231.44;8358711;34;20431;-74
2022/01/09 17:39:08;;;;;;;8.43;4.20;;;;;;;3.11;80.87;99235.47;8364030;34;20215;-75
2022/01/09 17:44:11;;;;;;;6.63;3.70;;;;;;;2.93;80.89;99258.78;8358643;34;20142;-76
2022/01/09 17:49:24;;;;;;;6.45;2.97;;;;;;;3.04;80.57;99262.44;8353837;34;20532;-76
2022/01/09 17:54:28;;;;;;;7.70;4.28;;;;;;;2.97;80.57;99274.41;8357799;34;20734;-74
2022/01/09 17:59:32;;;;;;;8.27;4.07;;;;;;;3.04;80.96;99272.16;8356583;34;21232;-75
2022/01/09 18:04:35;;;;;;;8.82;4.15;;;;;;;2.87;81.12;99288.38;8357708;34;20621;-74
2022/01/09 18:09:39;;;;;;;8.02;4.20;;;;;;;2.89;81.01;99295.28;8362525;34;20205;-74
2022/01/09 18:14:43;;;;;;;9.18;4.72;;;;;;;2.91;81.39;99297.81;8368700;34;20524;-74
2022/01/09 18:19:48;;;;;;;6.22;3.60;;;;;;;2.79;81.42;99308.28;8356714;34;20143;-74
2022/01/09 18:24:52;;;;;;;4.90;3.17;;;;;;;2.83;81.07;99307.16;8358369;34;20563;-74
2022/01/09 18:29:55;;;;;;;7.85;3.03;;;;;;;2.66;81.74;99328.63;8354056;34;20435;-74
2022/01/09 18:35:01;;;;;;;11.88;4.97;;;;;;;2.92;81.70;99344.63;8349816;34;20527;-74
2022/01/09 18:40:07;;;;;;;11.18;5.18;;;;;;;2.90;81.48;99349.16;8349351;34;20905;-74
2022/01/09 18:45:11;;;;;;;11.95;5.30;;;;;;;2.79;81.74;99358.66;8350448;34;20565;-74
2022/01/09 18:50:15;;;;;;;10.65;5.57;;;;;;;3.09;80.39;99364.72;8351267;34;20471;-74
2022/01/09 18:55:20;;;;;;;13.90;5.70;;;;;;;3.24;80.09;99375.19;8355952;34;20151;-75
2022/01/09 19:00:23;;;;;;;12.25;5.47;;;;;;;3.03;80.80;99385.41;8359303;34;20158;-74
2022/01/09 19:05:27;;;;;;;10.93;5.85;;;;;;;2.96;81.21;99384.13;8361155;34;20685;-74
2022/01/09 19:10:31;;;;;;;12.05;6.63;;;;;;;2.88;81.49;99399.69;8362101;34;20242;-75
2022/01/09 19:15:35;;;;;;;10.13;5.55;;;;;;;2.90;81.34;99407.53;8374455;34;20463;-75
2022/01/09 19:20:39;;;;;;;11.85;5.60;;;;;;;2.66;81.98;99417.91;8362126;34;20138;-75
2022/01/09 19:25:43;;;;;;;10.77;6.15;;;;;;;2.59;82.07;99433.38;8372301;34;20151;-75
2022/01/09 19:30:48;;;;;;;11.88;5.82;;;;;;;2.69;81.66;99437.16;8417978;34;20551;-75
2022/01/09 19:35:51;;;;;;;6.85;5.38;;;;;;;2.50;82.48;99444.53;8418964;34;20158;-75
2022/01/09 19:40:56;;;;;;;8.93;5.60;;;;;;;2.33;83.42;99446.41;8453075;33;20446;-75
2022/01/09 19:45:59;;;;;;;7.97;5.43;;;;;;;2.33;84.68;99458.78;8428650;34;20430;-76
2022/01/09 19:51:02;;;;;;;8.50;5.65;;;;;;;2.33;85.18;99459.66;8400730;34;20470;-76
2022/01/09 19:56:07;;;;;;;11.63;5.45;;;;;;;2.28;85.50;99475.00;8419672;34;20875;-76
2022/01/09 20:01:10;;;;;;;11.60;6.25;;;;;;;2.47;85.94;99487.97;8414623;34;20678;-76
2022/01/09 20:06:13;;;;;;;15.88;7.00;;;;;;;2.38;85.58;99494.66;8419134;34;20143;-76
2022/01/09 20:11:17;;;;;;;14.85;8.02;;;;;;;2.47;85.74;99508.31;8400256;34;20198;-76
2022/01/09 20:16:21;;;;;;;13.65;8.05;;;;;;;2.36;86.13;99511.66;8400114;34;20987;-76
2022/01/09 20:21:24;;;;;;;19.77;6.93;;;;;;;2.18;87.07;99511.78;8403638;34;20441;-76
2022/01/09 20:26:29;;;;;;;11.18;6.57;;;;;;;2.17;86.64;99517.19;8408046;34;20525;-78
2022/01/09 20:31:33;;;;;;;17.13;7.88;;;;;;;2.29;85.93;99532.34;8411672;34;20957;-75
2022/01/09 20:36:38;;;;;;;15.00;6.72;;;;;;;2.11;86.61;99541.38;8388943;34;20151;-75
2022/01/09 20:41:45;;;;;;;16.08;6.30;;;;;;;2.10;86.49;99545.00;8374151;34;20527;-75
2022/01/09 20:46:49;;;;;;;10.40;7.07;;;;;;;1.93;87.38;99552.13;8406945;34;20245;-74
2022/01/09 20:51:53;;;;;;;14.95;7.50;;;;;;;2.04;87.36;99559.47;8425175;34;20521;-75
2022/01/09 20:56:59;;;;;;;11.05;6.55;;;;;;;2.11;87.03;99573.19;8417109;34;20915;-75
2022/01/09 21:02:02;;;;;;;14.77;7.78;;;;;;;2.30;86.66;99573.78;8423438;34;20249;-75
2022/01/09 21:07:05;;;;;;;13.90;6.93;;;;;;;2.39;86.87;99583.03;8366275;34;20926;-75
2022/01/09 21:12:09;;;;;;;16.70;8.45;;;;;;;2.43;86.83;99588.97;8358402;34;21086;-75
2022/01/09 21:17:13;;;;;;;14.23;6.82;;;;;;;2.34;86.25;99587.75;8370741;28;20514;-76
2022/01/09 21:22:19;;;;;;;16.15;7.55;;;;;;;2.11;87.35;99605.84;8337571;34;20464;-76
2022/01/09 21:27:23;;;;;;;15.93;8.52;;;;;;;2.08;86.97;99618.41;8365811;34;20145;-76
2022/01/09 21:32:26;;;;;;;17.00;7.70;;;;;;;1.88;87.82;99619.56;8370236;34;20456;-75
2022/01/09 21:37:30;;;;;;;16.20;9.05;;;;;;;2.06;86.86;99639.69;8366227;34;20476;-76
2022/01/09 21:42:34;;;;;;;16.20;7.03;;;;;;;1.78;87.89;99637.75;8371114;34;20648;-75
2022/01/09 21:47:37;;;;;;;19.00;9.50;;;;;;;1.96;86.96;99643.81;8362414;34;20496;-76
2022/01/09 21:52:40;;;;;;;14.25;7.60;;;;;;;2.11;85.95;99648.25;8361975;34;20493;-76
2022/01/09 21:57:45;;;;;;;17.80;9.60;;;;;;;2.08;86.20;99666.09;8360160;34;20941;-76
2022/01/09 22:02:48;;;;;;;19.73;8.23;;;;;;;2.18;85.86;99660.19;8360866;34;20151;-75
2022/01/09 22:07:51;;;;;;;19.08;7.35;;;;;;;1.89;86.95;99675.09;8337348;34;20484;-76
2022/01/09 22:12:56;;;;;;;17.45;8.07;;;;;;;1.95;87.31;99685.34;8305800;34;21188;-75
2022/01/09 22:18:00;;;;;;;14.45;6.28;;;;;;;2.04;87.05;99691.06;8304555;34;20596;-75
2022/01/09 22:23:03;;;;;;;19.48;9.50;;;;;;;2.31;86.48;99701.88;8354728;34;20525;-75
2022/01/09 22:28:08;;;;;;;11.23;6.45;;;;;;;2.06;87.68;99708.59;8359593;34;20496;-75
2022/01/09 22:33:11;;;;;;;24.17;9.38;;;;;;;2.27;87.07;99709.13;8360264;34;20186;-77
2022/01/09 22:38:14;;;;;;;17.48;8.13;;;;;;;2.23;87.35;99709.44;8351331;34;20663;-76
2022/01/09 22:43:18;;;;;;;22.92;10.63;;;;;;;2.15;87.91;99737.19;8332470;34;20164;-76
2022/01/09 22:48:21;;;;;;;21.60;11.43;;;;;;;2.19;87.67;99743.16;8329965;34;20428;-75
2022/01/09 22:53:24;;;;;;;22.50;10.95;;;;;;;2.33;87.22;99747.69;8347282;34;20433;-75
2022/01/09 22:58:29;;;;;;;23.13;10.43;;;;;;;2.16;87.37;99756.59;8312572;34;20446;-75
2022/01/09 23:03:32;;;;;;;21.48;10.48;;;;;;;2.28;86.84;99763.03;8299554;34;20683;-77
2022/01/09 23:08:35;;;;;;;26.55;11.70;;;;;;;2.39;86.40;99763.25;8291441;34;20287;-77
2022/01/09 23:13:39;;;;;;;23.65;11.30;;;;;;;2.43;85.93;99778.03;8296632;34;20196;-76
2022/01/09 23:18:43;;;;;;;21.67;11.18;;;;;;;2.13;87.00;99788.56;8298730;34;20418;-76
2022/01/09 23:23:46;;;;;;;28.08;12.10;;;;;;;2.35;86.30;99798.81;8296672;34;20448;-77
2022/01/09 23:28:51;;;;;;;28.95;11.43;;;;;;;2.09;86.76;99817.03;8294075;34;20552;-75
2022/01/09 23:33:54;;;;;;;24.63;11.35;;;;;;;2.35;86.19;99825.34;8292520;34;20239;-77
2022/01/09 23:38:57;;;;;;;29.67;10.43;;;;;;;2.26;86.42;99831.16;8300411;34;20344;-76
2022/01/09 23:44:01;;;;;;;22.80;11.00;;;;;;;2.38;86.30;99836.59;8315120;34;20488;-76
2022/01/09 23:54:25;;;;;;;23.02;11.52;;;;;;;2.48;85.57;99852.03;8324519;34;20425;-78
2022/01/09 23:59:30;;;;;;;24.88;10.77;;;;;;;2.38;85.72;99862.25;8326854;34;20439;-77
